Time;durP1;ratioP1;P1;durP2;ratioP2;P2;SDS_P1;SDS_P2;PMS_P1;PMS_P2;Temp;Humidity;BMP_temperature;BMP_pressure;BME280_temperature;BME280_humidity;BME280_pressure;Samples;Min_cycle;Max_cycle;Signal;HPM_P1;HPM_P2
2021/05/17 00:02:20;;;;;;;1.13;0.60;;;;;;;7.16;88.83;95126.34;5112565;28;20043;-62
2021/05/17 00:04:46;;;;;;;1.67;0.60;;;;;;;7.12;88.64;95138.34;5112271;28;20437;-62
2021/05/17 00:07:12;;;;;;;1.80;0.77;;;;;;;7.10;89.18;95121.09;5112237;28;20093;-62
2021/05/17 00:09:41;;;;;;;3.50;1.00;;;;;;;7.14;89.06;95126.59;5112292;28;20039;-62
2021/05/17 00:12:11;;;;;;;2.80;0.88;;;;;;;7.18;89.31;95132.16;5112263;28;20642;-61
2021/05/17 00:14:38;;;;;;;2.90;0.90;;;;;;;7.16;89.18;95142.06;5112165;28;20295;-62
2021/05/17 00:17:06;;;;;;;3.65;0.95;;;;;;;7.12;88.73;95139.13;5112085;28;20545;-62
2021/05/17 00:19:35;;;;;;;2.83;1.05;;;;;;;7.17;88.83;95138.44;5112321;28;20049;-62
2021/05/17 00:22:01;;;;;;;4.78;1.20;;;;;;;7.17;88.94;95141.03;5112087;28;20068;-62
2021/05/17 00:24:27;;;;;;;2.95;1.00;;;;;;;7.22;88.88;95139.28;5112245;28;20044;-61
2021/05/17 00:26:55;;;;;;;3.47;1.05;;;;;;;7.30;88.70;95135.47;5093984;28;20429;-61
2021/05/17 00:29:21;;;;;;;2.30;0.80;;;;;;;7.26;88.60;95134.34;5094384;28;20069;-61
2021/05/17 00:31:50;;;;;;;3.28;1.10;;;;;;;7.29;89.12;95142.50;5113879;28;20040;-62
2021/05/17 00:34:16;;;;;;;2.30;0.98;;;;;;;7.32;88.82;95136.03;5112044;28;20063;-62
2021/05/17 00:36:44;;;;;;;3.65;1.15;;;;;;;7.38;88.73;95148.13;5112280;28;20074;-62
2021/05/17 00:39:11;;;;;;;3.15;1.13;;;;;;;7.32;88.63;95138.66;5112338;28;20048;-61
2021/05/17 00:41:38;;;;;;;4.07;1.30;;;;;;;7.47;88.82;95151.13;5112376;28;20051;-61
2021/05/17 00:44:05;;;;;;;5.60;1.40;;;;;;;7.39;89.30;95138.47;5111782;28;20529;-61
2021/05/17 00:46:31;;;;;;;4.35;1.50;;;;;;;7.35;89.35;95140.75;5112501;28;20043;-62
2021/05/17 00:48:59;;;;;;;5.70;1.48;;;;;;;7.38;88.63;95136.88;5114697;28;20044;-61
2021/05/17 00:51:25;;;;;;;5.85;1.60;;;;;;;7.36;88.91;95142.34;5114493;28;20048;-61
2021/05/17 00:53:51;;;;;;;5.13;1.58;;;;;;;7.28;90.01;95138.31;5113790;28;20050;-62
2021/05/17 00:56:17;;;;;;;3.90;1.40;;;;;;;7.27;89.11;95126.28;5094555;28;20035;-61
2021/05/17 00:58:47;;;;;;;5.53;1.65;;;;;;;7.24;89.53;95134.59;5113575;28;20533;-62
2021/05/17 01:01:15;;;;;;;4.63;1.48;;;;;;;7.19;89.55;95144.97;5113778;28;20307;-62
2021/05/17 01:03:40;;;;;;;4.55;1.55;;;;;;;7.24;90.01;95144.28;5113284;28;20039;-62
2021/05/17 01:06:07;;;;;;;5.55;1.80;;;;;;;7.19;89.54;95144.19;5094949;28;20059;-62
2021/05/17 01:08:39;;;;;;;5.75;1.55;;;;;;;7.15;89.35;95148.31;5111748;28;20097;-62
2021/05/17 01:11:05;;;;;;;5.03;1.58;;;;;;;7.16;89.59;95149.91;5111705;28;20058;-62
2021/05/17 01:13:32;;;;;;;5.47;1.60;;;;;;;7.15;89.16;95148.31;5111321;28;20122;-60
2021/05/17 01:15:59;;;;;;;4.88;1.40;;;;;;;7.14;89.81;95149.34;5111599;28;20066;-62
2021/05/17 01:18:26;;;;;;;4.47;1.40;;;;;;;7.10;88.97;95151.66;5111558;28;20566;-63
2021/05/17 01:20:54;;;;;;;6.28;1.60;;;;;;;7.04;89.60;95148.16;5111563;28;20138;-61
2021/05/17 01:25:47;;;;;;;5.30;1.52;;;;;;;7.01;89.40;95158.31;5111623;28;20119;-61
2021/05/17 01:28:19;;;;;;;5.13;1.60;;;;;;;7.07;88.94;95152.94;5111795;28;20126;-61
2021/05/17 01:30:45;;;;;;;3.60;1.25;;;;;;;7.08;89.13;95164.97;5111420;28;20387;-61
2021/05/17 01:33:11;;;;;;;5.57;1.33;;;;;;;7.10;89.01;95147.22;5111801;28;20089;-62
2021/05/17 01:35:39;;;;;;;4.32;1.33;;;;;;;7.18;88.49;95147.84;5112457;28;20118;-62
2021/05/17 01:38:09;;;;;;;4.47;1.15;;;;;;;7.18;88.36;95140.00;5111790;28;20086;-61
2021/05/17 01:40:38;;;;;;;4.20;1.10;;;;;;;7.20;88.64;95146.56;5111507;28;20380;-61
2021/05/17 01:43:05;;;;;;;3.40;0.90;;;;;;;7.20;87.95;95146.56;5111501;28;20050;-61
2021/05/17 01:45:31;;;;;;;3.42;1.00;;;;;;;7.24;87.33;95146.88;5111804;28;20050;-61
2021/05/17 01:47:58;;;;;;;1.85;0.80;;;;;;;7.20;87.29;95149.19;5094035;28;20044;-62
2021/05/17 01:50:24;;;;;;;5.43;1.00;;;;;;;7.19;87.36;95144.19;5113154;28;20050;-60
2021/05/17 01:52:51;;;;;;;3.08;0.88;;;;;;;7.25;86.69;95124.91;5111781;28;20039;-60
2021/05/17 01:55:18;;;;;;;1.65;0.70;;;;;;;7.22;86.37;95128.81;5092903;28;20487;-62
2021/05/17 01:57:45;;;;;;;3.67;0.90;;;;;;;7.16;86.92;95131.59;5113951;28;20035;-61
2021/05/17 02:00:13;;;;;;;1.95;0.70;;;;;;;7.15;86.41;95136.03;5115043;28;20082;-61
2021/05/17 02:02:39;;;;;;;2.42;0.80;;;;;;;7.13;86.35;95137.31;5115280;28;20059;-61
2021/05/17 02:05:09;;;;;;;3.33;0.80;;;;;;;7.17;86.20;95146.28;5114931;28;20475;-62
2021/05/17 02:07:35;;;;;;;3.13;0.80;;;;;;;7.10;85.59;95147.22;5114627;28;20533;-61
2021/05/17 02:10:03;;;;;;;2.33;0.80;;;;;;;7.18;85.97;95147.84;5114634;28;20048;-61
2021/05/17 02:12:32;;;;;;;1.52;0.70;;;;;;;7.15;85.82;95153.53;5114571;28;20555;-61
2021/05/17 02:14:58;;;;;;;1.80;0.70;;;;;;;7.09;85.57;95158.69;5096011;28;20329;-61
2021/05/17 02:17:25;;;;;;;2.60;0.77;;;;;;;7.04;86.39;95158.63;5114675;28;20048;-61
2021/05/17 02:19:51;;;;;;;1.98;0.70;;;;;;;7.03;86.77;95167.50;5114787;28;20040;-61
2021/05/17 02:22:18;;;;;;;1.27;0.60;;;;;;;6.97;86.41;95167.66;5114762;28;20049;-61
2021/05/17 02:24:45;;;;;;;3.35;0.70;;;;;;;6.98;86.37;95175.25;5114488;28;20070;-61
2021/05/17 02:27:13;;;;;;;2.65;0.73;;;;;;;6.96;86.86;95181.78;5114702;28;20039;-60
2021/05/17 02:29:38;;;;;;;2.72;0.75;;;;;;;6.88;87.20;95182.94;5113931;28;20307;-61
2021/05/17 02:32:06;;;;;;;2.30;0.82;;;;;;;6.75;87.96;95176.22;5113340;28;20044;-62
2021/05/17 02:34:32;;;;;;;2.13;0.70;;;;;;;6.76;87.49;95179.63;5113872;28;20391;-62
2021/05/17 02:37:01;;;;;;;2.15;0.80;;;;;;;6.70;87.95;95178.75;5114170;28;20246;-62
2021/05/17 02:39:30;;;;;;;4.18;0.88;;;;;;;6.54;89.11;95175.09;5114281;28;20085;-61
2021/05/17 02:41:56;;;;;;;4.90;1.10;;;;;;;6.74;88.46;95168.63;5114104;28;20575;-62
2021/05/17 02:44:22;;;;;;;2.70;0.88;;;;;;;6.69;88.95;95177.16;5113946;28;20035;-62
2021/05/17 02:46:52;;;;;;;2.83;0.80;;;;;;;6.66;88.54;95175.00;5113821;28;20040;-62
2021/05/17 02:49:19;;;;;;;0.80;0.52;;;;;;;6.66;88.27;95176.84;5114048;28;20036;-60
2021/05/17 02:51:48;;;;;;;1.65;0.75;;;;;;;6.52;89.05;95166.69;5114953;28;20043;-61
2021/05/17 02:54:31;;;;;;;3.17;0.80;;;;;;;6.48;89.18;95181.25;5115459;28;20057;-61
2021/05/17 02:57:09;;;;;;;3.15;0.85;;;;;;;6.45;89.82;95184.31;5115347;28;20410;-62
2021/05/17 02:59:55;;;;;;;3.25;0.90;;;;;;;6.52;89.70;95184.19;5114214;28;20050;-63
2021/05/17 03:02:25;;;;;;;2.92;0.88;;;;;;;6.56;89.72;95185.28;5114167;28;20048;-62
2021/05/17 03:04:59;;;;;;;3.58;0.90;;;;;;;6.55;89.74;95184.50;5113637;28;20039;-63
2021/05/17 03:07:29;;;;;;;1.77;0.80;;;;;;;6.64;89.87;95178.91;5113326;28;20044;-62
2021/05/17 03:09:57;;;;;;;3.38;0.90;;;;;;;6.60;89.54;95167.34;5113412;28;20133;-62
2021/05/17 03:12:24;;;;;;;4.07;0.90;;;;;;;6.66;89.29;95179.44;5113369;28;20040;-61
2021/05/17 03:14:51;;;;;;;3.90;1.05;;;;;;;6.77;88.70;95178.59;5113176;28;20071;-62
2021/05/17 03:17:18;;;;;;;1.90;0.80;;;;;;;6.66;88.69;95185.47;5094837;28;20055;-62
2021/05/17 03:19:44;;;;;;;5.50;0.90;;;;;;;6.67;89.31;95194.88;5113384;28;20039;-63
2021/05/17 03:22:14;;;;;;;2.85;0.98;;;;;;;6.53;89.56;95189.19;5113407;28;20386;-61
2021/05/17 03:24:41;;;;;;;3.28;1.00;;;;;;;6.59;89.01;95187.44;5113054;28;20392;-61
2021/05/17 03:27:19;;;;;;;2.17;0.90;;;;;;;6.69;89.37;95187.63;5113010;28;20039;-62
2021/05/17 03:29:45;;;;;;;4.03;1.05;;;;;;;6.54;89.00;95193.38;5115405;28;20151;-61
2021/05/17 03:32:10;;;;;;;2.97;1.08;;;;;;;6.60;88.81;95196.06;5113766;28;20485;-62
2021/05/17 03:34:38;;;;;;;3.15;1.10;;;;;;;6.84;88.50;95185.25;5113061;28;20456;-62
2021/05/17 03:37:04;;;;;;;4.40;1.10;;;;;;;6.74;88.02;95192.16;5113220;28;20036;-62
2021/05/17 03:39:31;;;;;;;4.30;1.10;;;;;;;6.77;88.44;95191.66;5113113;28;20118;-62
2021/05/17 03:41:56;;;;;;;2.67;0.90;;;;;;;6.81;87.94;95190.16;5113110;28;20040;-62
2021/05/17 03:44:22;;;;;;;3.33;1.05;;;;;;;6.88;87.64;95185.56;5112758;28;20040;-62
2021/05/17 03:46:48;;;;;;;3.20;0.85;;;;;;;6.91;86.90;95190.31;5094364;28;20063;-61
2021/05/17 03:49:14;;;;;;;4.25;0.93;;;;;;;6.86;86.67;95203.31;5112860;28;20082;-61
2021/05/17 03:51:39;;;;;;;2.83;0.90;;;;;;;6.90;86.79;95193.19;5112998;28;20043;-62
2021/05/17 03:54:07;;;;;;;2.33;0.90;;;;;;;6.96;86.51;95192.25;5112634;28;20038;-60
2021/05/17 03:56:34;;;;;;;3.03;0.95;;;;;;;6.93;86.84;95197.94;5112828;28;20044;-60
2021/05/17 03:58:59;;;;;;;4.97;1.35;;;;;;;7.00;86.85;95204.59;5112946;28;20043;-60
2021/05/17 04:01:25;;;;;;;2.90;0.90;;;;;;;7.12;86.18;95206.34;5113071;28;20050;-61
2021/05/17 04:03:53;;;;;;;6.20;1.17;;;;;;;7.18;86.05;95210.63;5112667;28;20429;-62
2021/05/17 04:06:43;;;;;;;2.75;0.90;;;;;;;7.07;85.44;95210.47;5113329;28;20036;-61
2021/05/17 04:14:38;;;;;;;4.00;0.90;;;;;;;7.25;84.83;95222.50;5112739;28;20050;-61
2021/05/17 04:17:04;;;;;;;2.40;0.88;;;;;;;7.21;84.53;95231.88;5113799;28;20036;-61
2021/05/17 04:19:30;;;;;;;5.47;1.20;;;;;;;7.27;84.57;95222.28;5112862;28;20387;-61
2021/05/17 04:21:55;;;;;;;3.60;0.93;;;;;;;7.32;84.76;95227.59;5113156;28;20065;-61
2021/05/17 04:24:21;;;;;;;4.20;1.00;;;;;;;7.27;84.38;95230.91;5112851;28;20502;-61
2021/05/17 04:26:47;;;;;;;4.25;1.10;;;;;;;7.33;84.66;95229.16;5112907;28;20047;-61
2021/05/17 04:29:13;;;;;;;6.38;1.15;;;;;;;7.33;84.73;95235.19;5094280;28;20406;-62
2021/05/17 04:31:41;;;;;;;4.70;1.23;;;;;;;7.36;84.77;95244.38;5112355;28;20047;-60
2021/05/17 04:34:07;;;;;;;3.72;1.20;;;;;;;7.34;84.63;95249.06;5111918;28;20035;-62
2021/05/17 04:36:33;;;;;;;3.42;1.15;;;;;;;7.36;84.33;95241.75;5111994;28;20046;-62
2021/05/17 04:38:59;;;;;;;4.90;1.20;;;;;;;7.49;84.37;95251.91;5112285;28;20388;-62
2021/05/17 04:41:25;;;;;;;3.70;1.30;;;;;;;7.52;84.76;95251.41;5112135;28;20039;-62
2021/05/17 04:43:51;;;;;;;5.15;1.50;;;;;;;7.63;83.16;95247.91;5112032;28;20047;-62
2021/05/17 04:46:19;;;;;;;5.90;1.20;;;;;;;7.66;84.31;95254.50;5130100;22;20051;-66
2021/05/17 04:48:51;;;;;;;4.35;1.20;;;;;;;7.72;83.47;95247.50;5112358;28;20067;-67
2021/05/17 04:51:18;;;;;;;3.38;1.15;;;;;;;7.76;83.50;95248.63;5112605;28;20039;-68
2021/05/17 04:53:44;;;;;;;4.72;1.17;;;;;;;7.70;83.96;95249.59;5112603;28;20058;-68
2021/05/17 04:56:10;;;;;;;4.70;1.63;;;;;;;7.60;84.24;95255.47;5112554;28;20040;-68
2021/05/17 04:58:36;;;;;;;4.93;1.30;;;;;;;7.66;84.09;95253.72;5112829;28;20066;-67
2021/05/17 05:01:01;;;;;;;5.60;1.15;;;;;;;7.68;84.89;95255.03;5113173;28;20040;-67
2021/05/17 05:03:29;;;;;;;5.72;1.35;;;;;;;7.73;84.33;95259.56;5112450;28;20043;-68
2021/05/17 05:05:55;;;;;;;6.22;1.20;;;;;;;7.81;83.94;95256.53;5112392;28;20032;-67
2021/05/17 05:08:21;;;;;;;6.35;1.55;;;;;;;7.83;84.48;95260.50;5094635;28;20048;-69
2021/05/17 05:10:47;;;;;;;5.15;1.40;;;;;;;7.92;84.13;95255.66;5094796;28;20495;-68
2021/05/17 05:13:12;;;;;;;5.57;1.20;;;;;;;7.89;84.02;95256.91;5112276;28;20047;-67
2021/05/17 05:15:38;;;;;;;5.32;1.10;;;;;;;8.01;83.71;95250.75;5114593;28;20112;-67
2021/05/17 05:18:06;;;;;;;5.15;1.20;;;;;;;7.96;83.56;95253.31;5114992;28;20046;-68
2021/05/17 05:20:33;;;;;;;9.02;1.40;;;;;;;8.01;84.07;95262.03;5115248;28;20043;-67
2021/05/17 05:23:01;;;;;;;7.15;1.63;;;;;;;7.99;84.06;95271.97;5112889;28;20035;-68
2021/05/17 05:25:31;;;;;;;4.50;1.40;;;;;;;7.97;84.20;95262.78;5112448;28;20036;-67
2021/05/17 05:28:00;;;;;;;4.80;1.30;;;;;;;7.95;84.60;95268.25;5113052;28;20035;-67
2021/05/17 05:33:16;;;;;;;4.93;1.50;;;;;;;8.07;83.36;95261.09;5115640;28;20478;-68
2021/05/17 05:35:43;;;;;;;5.18;1.35;;;;;;;8.34;82.61;95270.81;5115823;28;20043;-67
2021/05/17 05:38:09;;;;;;;6.95;1.63;;;;;;;9.27;80.37;95265.50;5116106;28;20043;-67
2021/05/17 05:40:34;;;;;;;4.40;1.25;;;;;;;9.15;79.00;95271.72;5115760;28;20043;-68
2021/05/17 05:43:00;;;;;;;4.80;1.30;;;;;;;9.07;78.89;95281.84;5115588;28;20043;-67
2021/05/17 05:45:26;;;;;;;8.20;1.48;;;;;;;9.04;79.50;95275.28;5116182;28;20035;-67
2021/05/17 05:47:52;;;;;;;7.03;1.30;;;;;;;9.15;79.11;95287.44;5116005;28;20047;-66
2021/05/17 05:50:17;;;;;;;6.97;1.42;;;;;;;8.79;80.08;95288.13;5116148;28;20507;-67
2021/05/17 05:52:44;;;;;;;6.65;1.42;;;;;;;8.94;79.93;95302.19;5116197;28;20127;-67
2021/05/17 05:55:13;;;;;;;6.43;1.90;;;;;;;8.85;80.13;95303.66;5116224;28;20085;-67
2021/05/17 05:57:43;;;;;;;7.85;1.63;;;;;;;9.03;79.87;95309.63;5115967;28;20066;-67
2021/05/17 06:00:11;;;;;;;6.28;1.40;;;;;;;9.17;78.60;95297.69;5116332;28;20528;-69
2021/05/17 06:02:39;;;;;;;7.07;1.38;;;;;;;9.20;78.99;95305.88;5115749;28;20035;-67
2021/05/17 06:05:06;;;;;;;5.05;1.40;;;;;;;9.41;77.23;95306.81;5097062;28;20222;-68
2021/05/17 06:07:32;;;;;;;7.27;1.40;;;;;;;9.42;78.52;95315.50;5116025;28;20406;-67
2021/05/17 06:09:59;;;;;;;5.05;1.63;;;;;;;9.39;78.19;95313.34;5097734;28;20040;-67
2021/05/17 06:12:25;;;;;;;8.02;1.63;;;;;;;9.46;78.13;95300.81;5117398;28;20127;-67
2021/05/17 06:14:58;;;;;;;6.82;1.27;;;;;;;9.69;78.67;95311.00;5116706;28;20039;-67
2021/05/17 06:17:24;;;;;;;7.28;1.40;;;;;;;9.57;77.27;95318.22;5114842;28;20159;-68
2021/05/17 06:19:50;;;;;;;4.97;1.20;;;;;;;9.59;77.33;95310.91;5115673;28;20096;-69
2021/05/17 06:22:16;;;;;;;4.50;1.20;;;;;;;9.85;76.90;95317.16;5115711;28;20040;-68
2021/05/17 06:24:42;;;;;;;4.32;1.10;;;;;;;9.76;76.25;95316.03;5115266;28;20039;-68
2021/05/17 06:27:10;;;;;;;4.90;1.42;;;;;;;9.71;76.00;95319.41;5115484;28;20050;-68
2021/05/17 06:29:37;;;;;;;6.82;1.55;;;;;;;9.58;76.44;95322.47;5115676;28;20040;-68
2021/05/17 06:32:03;;;;;;;7.40;1.27;;;;;;;10.26;75.16;95317.41;5115113;28;20073;-68
2021/05/17 06:34:29;;;;;;;7.43;1.40;;;;;;;10.21;74.34;95314.72;5115147;28;20039;-68
2021/05/17 06:36:55;;;;;;;6.43;1.40;;;;;;;10.33;73.74;95330.31;5114955;28;20039;-69
2021/05/17 06:39:21;;;;;;;5.50;1.27;;;;;;;10.45;73.09;95333.53;5115543;28;20036;-68
2021/05/17 06:41:47;;;;;;;5.25;1.30;;;;;;;10.26;74.60;95312.16;5115504;28;20118;-68
2021/05/17 06:44:14;;;;;;;4.75;1.35;;;;;;;10.10;73.48;95323.59;5114869;28;20135;-67
2021/05/17 06:46:42;;;;;;;5.70;1.30;;;;;;;11.00;71.32;95326.91;5114814;28;20392;-67
2021/05/17 06:49:08;;;;;;;6.93;1.40;;;;;;;11.31;69.73;95322.50;5096914;28;20528;-68
2021/05/17 06:51:33;;;;;;;4.88;1.20;;;;;;;11.34;68.64;95321.16;5096169;28;20097;-68
2021/05/17 06:54:01;;;;;;;6.45;1.50;;;;;;;11.23;70.21;95323.78;5114614;28;20039;-68
2021/05/17 06:56:38;;;;;;;6.50;1.48;;;;;;;11.21;69.07;95335.63;5116271;28;20066;-69
2021/05/17 06:59:12;;;;;;;5.25;1.23;;;;;;;11.15;69.35;95329.56;5120283;28;20406;-67
2021/05/17 07:01:39;;;;;;;8.10;1.50;;;;;;;11.30;70.25;95334.88;5118511;28;20406;-67
2021/05/17 07:04:07;;;;;;;5.30;1.23;;;;;;;11.76;68.90;95339.38;5097477;28;20046;-67
2021/05/17 07:06:38;;;;;;;5.75;1.10;;;;;;;11.72;67.61;95339.09;5114992;28;20070;-69
2021/05/17 07:14:14;;;;;;;5.93;1.50;;;;;;;12.05;65.61;95344.91;5114937;28;20518;-68
2021/05/17 07:16:41;;;;;;;3.80;1.40;;;;;;;11.97;65.32;95348.09;5115042;28;20086;-68
2021/05/17 07:19:07;;;;;;;4.78;1.10;;;;;;;12.19;65.27;95347.78;5096473;28;20044;-67
2021/05/17 07:24:21;;;;;;;3.85;1.05;;;;;;;11.94;65.33;95338.06;5113769;28;20135;-68
2021/05/17 07:26:49;;;;;;;3.10;1.10;;;;;;;11.93;64.57;95333.84;5096243;28;20084;-67
2021/05/17 07:29:15;;;;;;;6.50;1.25;;;;;;;11.71;65.87;95337.50;5114333;28;20206;-68
2021/05/17 07:31:44;;;;;;;5.10;1.60;;;;;;;11.63;66.11;95343.31;5114227;28;20039;-68
2021/05/17 07:34:10;;;;;;;3.67;1.13;;;;;;;11.63;66.07;95337.28;5115142;28;20045;-69
2021/05/17 07:36:36;;;;;;;3.88;1.13;;;;;;;12.32;64.82;95339.31;5095917;28;20062;-68
2021/05/17 07:39:03;;;;;;;5.40;1.20;;;;;;;12.22;64.70;95326.97;5114398;28;20417;-66
2021/05/17 07:41:28;;;;;;;6.72;1.23;;;;;;;12.00;66.05;95345.72;5114449;28;20036;-67
2021/05/17 07:43:54;;;;;;;3.28;1.10;;;;;;;11.48;67.83;95344.09;5114164;28;20046;-68
2021/05/17 07:46:20;;;;;;;4.13;1.17;;;;;;;11.43;68.55;95340.66;5114401;28;20473;-69
2021/05/17 07:49:06;;;;;;;2.30;0.95;;;;;;;11.24;71.57;95343.00;5114609;28;20036;-67
2021/05/17 07:51:32;;;;;;;5.90;1.20;;;;;;;10.93;74.86;95350.03;5096631;28;20047;-68
2021/05/17 07:53:57;;;;;;;3.63;1.10;;;;;;;10.80;76.27;95342.63;5113609;28;20115;-68
2021/05/17 07:56:23;;;;;;;3.63;1.00;;;;;;;10.82;76.46;95349.22;5114993;28;20058;-68
2021/05/17 07:58:51;;;;;;;3.97;1.05;;;;;;;10.35;73.89;95341.38;5114565;28;20039;-69
2021/05/17 08:01:17;;;;;;;4.63;1.40;;;;;;;10.70;75.07;95351.25;5115041;28;20513;-68
2021/05/17 08:03:42;;;;;;;5.20;1.20;;;;;;;10.85;75.14;95351.31;5114477;28;20275;-68
2021/05/17 08:06:09;;;;;;;1.77;0.70;;;;;;;10.80;75.02;95345.25;5114171;28;20537;-68
2021/05/17 08:08:35;;;;;;;1.48;0.70;;;;;;;10.58;72.18;95358.56;5097313;28;20498;-68
2021/05/17 08:11:02;;;;;;;4.60;1.00;;;;;;;10.95;70.54;95361.09;5114341;28;20093;-68
2021/05/17 08:13:28;;;;;;;3.97;1.02;;;;;;;11.56;69.84;95353.31;5116392;28;20050;-67
2021/05/17 08:15:54;;;;;;;3.17;0.80;;;;;;;11.87;65.50;95350.72;5115025;28;20138;-69
2021/05/17 08:18:20;;;;;;;4.25;1.10;;;;;;;11.68;66.16;95356.50;5113588;28;20159;-68
2021/05/17 08:20:45;;;;;;;3.35;0.82;;;;;;;11.56;65.06;95350.69;5113722;28;20035;-69
2021/05/17 08:23:17;;;;;;;4.25;1.20;;;;;;;11.49;66.08;95360.69;5094337;28;20050;-68
2021/05/17 08:25:46;;;;;;;2.60;0.80;;;;;;;11.66;66.56;95355.16;5113290;28;20498;-68
2021/05/17 08:28:12;;;;;;;4.35;1.00;;;;;;;11.73;65.49;95361.78;5095330;28;20043;-68
2021/05/17 08:30:46;;;;;;;4.00;0.80;;;;;;;12.03;64.17;95366.25;5113883;28;20061;-68
2021/05/17 08:33:14;;;;;;;1.85;0.80;;;;;;;11.68;63.48;95364.41;5112581;28;20498;-69
2021/05/17 08:35:41;;;;;;;3.80;0.80;;;;;;;12.33;61.45;95362.78;5117060;28;20322;-68
2021/05/17 08:38:07;;;;;;;4.10;0.90;;;;;;;12.60;61.61;95365.09;5120883;28;20079;-68
2021/05/17 08:40:35;;;;;;;3.47;0.70;;;;;;;12.76;65.87;95367.69;5100219;28;20043;-69
2021/05/17 08:43:01;;;;;;;;;;;;;;;12.24;70.29;95374.94;5117236;28;20059;-68
2021/05/17 08:45:27;;;;;;;4.40;0.70;;;;;;;11.62;71.07;95357.53;5113634;28;20319;-68
2021/05/17 08:47:54;;;;;;;3.30;1.00;;;;;;;11.46;74.79;95361.19;5095851;28;20149;-68
2021/05/17 08:50:20;;;;;;;5.22;1.08;;;;;;;11.36;73.76;95361.22;5095968;28;20089;-68
2021/05/17 08:52:45;;;;;;;2.97;0.70;;;;;;;10.83;71.47;95358.69;5115588;28;20036;-69
2021/05/17 08:55:12;;;;;;;3.00;0.70;;;;;;;10.76;72.05;95376.53;5113902;28;20101;-69
2021/05/17 08:57:41;;;;;;;1.50;0.60;;;;;;;10.69;73.28;95374.13;5115119;28;20046;-68
2021/05/17 09:00:09;;;;;;;2.25;0.80;;;;;;;10.47;74.09;95369.03;5098873;28;20062;-68
2021/05/17 09:02:34;;;;;;;5.03;0.85;;;;;;;10.41;75.29;95382.41;5113217;28;20128;-67
2021/05/17 09:05:19;;;;;;;1.35;0.70;;;;;;;10.30;77.52;95391.28;5112254;28;20063;-68
2021/05/17 09:07:46;;;;;;;2.97;0.70;;;;;;;10.17;77.49;95402.97;5098381;28;20632;-69
2021/05/17 09:10:14;;;;;;;3.55;0.70;;;;;;;10.17;78.05;95397.72;5116549;28;20040;-69
2021/05/17 09:12:55;;;;;;;3.42;0.80;;;;;;;10.43;77.86;95396.88;5116478;28;20491;-69
2021/05/17 09:15:27;;;;;;;1.65;0.70;;;;;;;10.69;78.01;95386.50;5119240;28;20063;-69
2021/05/17 09:18:00;;;;;;;3.25;0.80;;;;;;;10.92;74.52;95399.22;5104743;28;20410;-69
2021/05/17 09:20:34;;;;;;;1.45;0.50;;;;;;;11.49;73.39;95398.34;5121007;28;20123;-69
2021/05/17 09:23:08;;;;;;;0.90;0.60;;;;;;;12.15;70.43;95399.47;5121970;28;20042;-69
2021/05/17 09:25:34;;;;;;;1.58;0.63;;;;;;;11.98;68.96;95399.72;5121626;28;20191;-69
2021/05/17 09:28:02;;;;;;;3.42;0.75;;;;;;;11.90;70.15;95402.91;5122076;28;20126;-69
2021/05/17 09:30:51;;;;;;;0.73;0.50;;;;;;;12.14;69.92;95398.66;5099784;28;20039;-69
2021/05/17 09:33:20;;;;;;;0.90;0.40;;;;;;;11.78;69.60;95389.94;5116815;28;20099;-70
2021/05/17 09:35:47;;;;;;;1.10;0.60;;;;;;;11.52;70.27;95394.41;5117758;28;20063;-69
2021/05/17 09:38:24;;;;;;;2.65;0.75;;;;;;;11.57;68.30;95391.78;5099102;28;20036;-69
2021/05/17 09:41:04;;;;;;;1.75;0.70;;;;;;;11.66;69.28;95402.59;5116613;28;20063;-68
2021/05/17 09:43:32;;;;;;;1.15;0.52;;;;;;;11.92;66.37;95395.53;5116345;28;20040;-68
2021/05/17 09:45:58;;;;;;;3.20;1.00;;;;;;;12.14;66.48;95388.13;5116325;28;20405;-68
2021/05/17 09:48:28;;;;;;;6.60;1.25;;;;;;;12.11;67.38;95395.75;5117751;28;20047;-68
2021/05/17 09:50:57;;;;;;;2.50;0.80;;;;;;;12.45;67.47;95388.09;5116986;28;20093;-68
2021/05/17 09:53:24;;;;;;;2.28;0.60;;;;;;;12.84;64.92;95391.66;5116549;28;20115;-68
2021/05/17 09:55:50;;;;;;;1.27;0.60;;;;;;;12.47;64.06;95386.75;5117196;28;20067;-69
2021/05/17 09:58:32;;;;;;;1.13;0.50;;;;;;;12.48;64.48;95387.53;5098330;28;20470;-68
2021/05/17 10:01:10;;;;;;;5.68;0.60;;;;;;;12.38;65.45;95393.66;5116711;28;20528;-69
2021/05/17 10:03:40;;;;;;;1.20;0.68;;;;;;;12.56;65.56;95389.66;5116050;28;20040;-68
2021/05/17 10:06:11;;;;;;;1.50;0.65;;;;;;;12.69;62.57;95381.16;5117628;28;20058;-69
2021/05/17 10:08:37;;;;;;;2.70;0.70;;;;;;;12.82;61.53;95369.25;5116796;28;20047;-68
2021/05/17 10:11:04;;;;;;;1.48;0.57;;;;;;;13.12;62.41;95389.44;5117818;28;20450;-69
2021/05/17 10:13:34;;;;;;;1.55;0.60;;;;;;;13.50;60.63;95385.28;5097764;28;20059;-68
2021/05/17 10:16:03;;;;;;;1.02;0.50;;;;;;;14.00;60.90;95379.94;5115777;28;20044;-68
2021/05/17 10:18:29;;;;;;;2.30;0.63;;;;;;;13.66;61.29;95389.41;5096943;28;20043;-68
2021/05/17 10:20:56;;;;;;;1.30;0.60;;;;;;;13.41;59.61;95378.25;5097820;28;20071;-68
2021/05/17 10:23:22;;;;;;;3.22;0.80;;;;;;;13.07;62.48;95379.69;5098241;28;20035;-68
2021/05/17 10:25:49;;;;;;;1.05;0.52;;;;;;;12.74;67.00;95373.22;5117685;28;20436;-68
2021/05/17 10:28:17;;;;;;;4.45;1.10;;;;;;;12.63;64.84;95384.88;5102138;28;20402;-69
2021/05/17 10:30:43;;;;;;;;;;;;;;;12.57;64.03;95392.00;5119001;28;20035;-68
2021/05/17 10:33:10;;;;;;;1.95;0.70;;;;;;;12.06;65.21;95396.59;5098771;28;20002;-69
2021/05/17 10:35:50;;;;;;;4.82;1.13;;;;;;;12.16;65.06;95401.84;5116522;28;20040;-69
2021/05/17 10:38:23;;;;;;;1.60;0.70;;;;;;;12.07;65.74;95398.16;5117135;28;20039;-68
2021/05/17 10:40:53;;;;;;;3.17;0.65;;;;;;;12.03;64.81;95386.56;5116140;28;20564;-71
2021/05/17 10:43:54;;;;;;;2.15;0.65;;;;;;;11.82;64.89;95391.81;5098410;28;20039;-68
2021/05/17 10:46:38;;;;;;;3.05;0.70;;;;;;;11.81;68.68;95387.59;5133691;22;20137;-61
2021/05/17 10:49:28;;;;;;;2.95;0.80;;;;;;;11.52;70.06;95389.94;5115061;28;20407;-62
2021/05/17 10:51:56;;;;;;;2.33;0.90;;;;;;;12.18;69.23;95377.84;5096331;28;20040;-61
2021/05/17 10:54:25;;;;;;;3.90;0.90;;;;;;;12.65;65.10;95387.25;5114312;28;20042;-63
2021/05/17 10:56:57;;;;;;;2.63;0.70;;;;;;;12.01;65.78;95383.41;5095863;28;20043;-62
2021/05/17 11:02:27;;;;;;;1.55;0.60;;;;;;;12.11;64.75;95386.03;5114269;28;20055;-62
2021/05/17 11:04:59;;;;;;;3.67;0.95;;;;;;;12.42;64.44;95380.69;5095620;28;20039;-63
2021/05/17 11:07:28;;;;;;;2.15;0.63;;;;;;;12.53;64.78;95380.41;5099287;28;20506;-63
2021/05/17 11:10:00;;;;;;;2.13;0.70;;;;;;;12.07;67.23;95372.59;5119000;28;20047;-61
2021/05/17 11:12:56;;;;;;;3.17;1.00;;;;;;;12.13;67.07;95391.03;5114082;28;20062;-62
2021/05/17 11:15:25;;;;;;;4.38;1.20;;;;;;;11.88;69.23;95395.25;5078573;28;20043;-63
2021/05/17 11:18:03;;;;;;;4.60;1.15;;;;;;;11.81;70.61;95405.22;5113838;28;20043;-62
2021/05/17 11:20:50;;;;;;;3.38;1.00;;;;;;;11.63;71.24;95409.19;5113756;28;20051;-63
2021/05/17 11:23:19;;;;;;;2.53;0.90;;;;;;;12.12;71.41;95406.06;5113783;28;20058;-63
2021/05/17 11:25:48;;;;;;;3.67;1.00;;;;;;;12.08;74.13;95411.06;5095431;28;20111;-63
2021/05/17 11:28:15;;;;;;;4.68;1.08;;;;;;;12.34;74.03;95408.41;5113503;28;20035;-62
2021/05/17 11:30:44;;;;;;;3.78;1.05;;;;;;;12.86;68.82;95409.84;5113556;28;20053;-62
2021/05/17 11:33:19;;;;;;;2.95;0.98;;;;;;;13.41;66.84;95405.44;5113211;28;20565;-62
2021/05/17 11:36:13;;;;;;;3.22;1.10;;;;;;;13.88;62.67;95398.78;5113376;28;20059;-62
2021/05/17 11:39:03;;;;;;;2.67;0.80;;;;;;;14.37;61.57;95406.59;5113972;28;20058;-63
2021/05/17 11:41:30;;;;;;;2.33;0.70;;;;;;;13.66;61.14;95407.13;5113448;28;20047;-62
2021/05/17 11:44:02;;;;;;;3.13;0.80;;;;;;;12.95;62.53;95412.75;5094851;28;20046;-62
2021/05/17 11:46:29;;;;;;;2.10;0.70;;;;;;;12.29;67.81;95401.31;5095404;28;20528;-61
2021/05/17 11:48:56;;;;;;;4.55;0.75;;;;;;;12.12;69.74;95406.06;5113808;28;20525;-61
2021/05/17 11:51:26;;;;;;;2.35;0.60;;;;;;;11.98;72.15;95403.16;5113421;28;20149;-61
2021/05/17 11:53:53;;;;;;;4.20;0.80;;;;;;;11.63;72.21;95401.28;5095654;28;20122;-61
2021/05/17 11:56:19;;;;;;;2.92;0.90;;;;;;;11.34;76.23;95408.84;5113224;28;20039;-61
2021/05/17 11:59:03;;;;;;;3.70;0.90;;;;;;;10.62;78.60;95407.78;5113370;28;20089;-62
2021/05/17 12:01:30;;;;;;;2.10;0.73;;;;;;;10.41;80.89;95408.72;5113175;28;20046;-62
2021/05/17 12:04:10;;;;;;;3.90;1.03;;;;;;;10.66;81.73;95410.69;5094419;28;20047;-61
2021/05/17 12:06:38;;;;;;;3.53;0.80;;;;;;;10.68;80.96;95419.91;5112624;28;20370;-61
2021/05/17 12:09:04;;;;;;;2.05;0.90;;;;;;;10.81;81.59;95428.38;5112831;28;20047;-62